createdAt,value
2019-04-16T00:00:13.252Z,8.79
2019-04-16T00:01:14.023Z,8.79
2019-04-16T00:02:13.230Z,8.74
2019-04-16T00:03:13.233Z,8.81
2019-04-16T00:04:13.221Z,8.70
2019-04-16T00:05:13.217Z,8.78
2019-04-16T00:06:13.209Z,8.73
2019-04-16T00:07:13.207Z,8.71
2019-04-16T00:08:27.184Z,8.76
2019-04-16T00:09:13.195Z,8.78
2019-04-16T00:10:13.184Z,8.67
2019-04-16T00:11:13.182Z,8.87
2019-04-16T00:12:13.173Z,8.74
2019-04-16T00:13:13.171Z,8.71
2019-04-16T00:14:13.162Z,8.74
2019-04-16T00:15:13.153Z,8.67
2019-04-16T00:16:13.768Z,8.73
2019-04-16T00:17:15.712Z,8.69
2019-04-16T00:18:13.141Z,8.69
2019-04-16T00:19:13.137Z,8.63
2019-04-16T00:20:13.125Z,8.63
2019-04-16T00:21:13.120Z,8.69
2019-04-16T00:22:13.115Z,8.64
2019-04-16T00:23:13.110Z,8.67
2019-04-16T00:24:13.105Z,8.71
2019-04-16T00:25:13.093Z,8.56
2019-04-16T00:26:13.091Z,8.63
2019-04-16T00:27:13.087Z,8.61
2019-04-16T00:28:13.081Z,8.49
2019-04-16T00:29:13.078Z,8.49
2019-04-16T00:30:13.066Z,8.49
2019-04-16T00:31:13.065Z,8.48
2019-04-16T00:32:13.055Z,8.44
2019-04-16T00:33:13.053Z,8.36
2019-04-16T00:34:14.218Z,8.36
2019-04-16T00:35:15.456Z,8.33
2019-04-16T00:36:15.378Z,8.34
2019-04-16T00:37:13.025Z,8.30
2019-04-16T00:38:13.024Z,8.37
2019-04-16T00:39:13.019Z,8.31
2019-04-16T00:40:13.009Z,8.23
2019-04-16T00:41:13.004Z,8.27
2019-04-16T00:42:12.996Z,8.23
2019-04-16T00:43:12.997Z,8.23
2019-04-16T00:44:12.983Z,8.24
2019-04-16T00:45:12.984Z,8.26
2019-04-16T00:46:12.979Z,8.26
2019-04-16T00:47:12.971Z,8.19
2019-04-16T00:48:12.962Z,8.31
2019-04-16T00:49:12.960Z,8.13
2019-04-16T00:50:12.951Z,8.24
2019-04-16T00:51:12.946Z,8.12
2019-04-16T00:52:12.944Z,8.13
2019-04-16T00:53:12.934Z,8.15
2019-04-16T00:54:12.927Z,8.12
2019-04-16T00:55:14.623Z,8.09
2019-04-16T00:56:13.368Z,8.03
2019-04-16T00:57:17.770Z,7.98
2019-04-16T00:58:12.903Z,7.94
2019-04-16T00:59:12.901Z,7.93
2019-04-16T01:00:12.893Z,7.88
2019-04-16T01:01:12.883Z,7.87
2019-04-16T01:02:12.882Z,7.82
2019-04-16T01:03:12.871Z,7.73
2019-04-16T01:04:12.868Z,7.67
2019-04-16T01:05:12.863Z,7.75
2019-04-16T01:06:12.854Z,7.61
2019-04-16T01:07:12.849Z,7.54
2019-04-16T01:08:12.839Z,7.53
2019-04-16T01:09:12.832Z,7.53
2019-04-16T01:10:12.833Z,7.57
2019-04-16T01:11:12.826Z,7.38
2019-04-16T01:12:12.819Z,7.43
2019-04-16T01:13:12.815Z,7.38
2019-04-16T01:14:12.809Z,7.39
2019-04-16T01:15:12.802Z,7.35
2019-04-16T01:16:12.800Z,7.32
2019-04-16T01:17:12.783Z,7.33
2019-04-16T01:18:12.784Z,7.28
2019-04-16T01:19:12.772Z,7.18
2019-04-16T01:20:13.111Z,7.20
2019-04-16T01:21:14.157Z,7.21
2019-04-16T01:22:15.760Z,7.20
2019-04-16T01:23:17.521Z,7.25
2019-04-16T01:24:12.747Z,7.18
2019-04-16T01:25:12.739Z,7.17
2019-04-16T01:26:12.728Z,7.18
2019-04-16T01:27:12.730Z,7.18
2019-04-16T01:28:12.721Z,7.17
2019-04-16T01:29:12.710Z,7.15
2019-04-16T01:30:12.708Z,7.21
2019-04-16T01:31:12.706Z,7.11
2019-04-16T01:32:12.693Z,7.06
2019-04-16T01:33:14.786Z,7.03
2019-04-16T01:34:15.298Z,7.10
2019-04-16T01:35:12.681Z,7.13
2019-04-16T01:36:12.667Z,7.13
2019-04-16T01:37:12.661Z,7.10
2019-04-16T01:38:12.659Z,7.00
2019-04-16T01:39:17.946Z,7.02
2019-04-16T01:40:12.646Z,6.99
2019-04-16T01:41:12.634Z,7.02
2019-04-16T01:42:12.628Z,7.02
2019-04-16T01:43:12.628Z,6.99
2019-04-16T01:44:12.619Z,7.11
2019-04-16T01:45:12.615Z,7.00
2019-04-16T01:46:12.606Z,7.10
2019-04-16T01:47:12.597Z,7.05
2019-04-16T01:48:12.593Z,7.03
2019-04-16T01:49:12.591Z,7.00
2019-04-16T01:50:13.991Z,7.07
2019-04-16T01:51:15.316Z,7.00
2019-04-16T01:52:12.569Z,7.00
2019-04-16T01:53:12.565Z,6.99
2019-04-16T01:54:12.557Z,7.07
2019-04-16T01:55:12.551Z,6.96
2019-04-16T01:56:12.549Z,7.00
2019-04-16T01:57:12.535Z,7.02
2019-04-16T01:58:12.532Z,7.07
2019-04-16T01:59:12.527Z,6.96
2019-04-16T02:00:12.520Z,7.00
2019-04-16T02:01:12.513Z,7.06
2019-04-16T02:02:15.533Z,7.07
2019-04-16T02:03:12.498Z,6.95
2019-04-16T02:04:12.488Z,7.14
2019-04-16T02:05:12.488Z,7.07
2019-04-16T02:06:12.482Z,7.02
2019-04-16T02:07:12.477Z,7.02
2019-04-16T02:08:12.468Z,6.97
2019-04-16T02:09:22.403Z,7.10
2019-04-16T02:10:12.452Z,6.99
2019-04-16T02:11:12.452Z,7.03
2019-04-16T02:12:13.514Z,6.96
2019-04-16T02:13:14.952Z,6.96
2019-04-16T02:14:14.509Z,6.99
2019-04-16T02:15:12.427Z,6.99
2019-04-16T02:16:12.503Z,7.03
2019-04-16T02:17:12.411Z,7.00
2019-04-16T02:18:12.462Z,6.93
2019-04-16T02:19:12.446Z,6.96
2019-04-16T02:20:12.387Z,6.99
2019-04-16T02:21:12.390Z,6.96
2019-04-16T02:22:13.964Z,6.99
2019-04-16T02:23:13.688Z,6.99
2019-04-16T02:24:12.363Z,6.92
2019-04-16T02:25:12.520Z,6.96
2019-04-16T02:26:12.519Z,6.87
2019-04-16T02:27:12.343Z,6.82
2019-04-16T02:28:12.338Z,6.85
2019-04-16T02:29:12.329Z,6.92
2019-04-16T02:30:12.323Z,6.84
2019-04-16T02:31:15.683Z,6.89
2019-04-16T02:32:12.313Z,6.89
2019-04-16T02:33:12.306Z,6.89
2019-04-16T02:34:12.326Z,6.82
2019-04-16T02:35:12.287Z,6.81
2019-04-16T02:36:12.291Z,6.75
2019-04-16T02:37:12.281Z,6.79
2019-04-16T02:38:13.843Z,6.79
2019-04-16T02:39:12.265Z,6.70
2019-04-16T02:40:16.659Z,6.69
2019-04-16T02:41:12.246Z,6.75
2019-04-16T02:42:12.242Z,6.74
2019-04-16T02:43:12.246Z,6.75
2019-04-16T02:44:15.983Z,6.72
2019-04-16T02:45:12.416Z,6.69
2019-04-16T02:46:12.222Z,6.66
2019-04-16T02:47:12.215Z,6.70
2019-04-16T02:48:16.706Z,6.75
2019-04-16T02:49:12.516Z,6.74
2019-04-16T02:50:12.195Z,6.57
2019-04-16T02:51:12.183Z,6.60
2019-04-16T02:52:16.485Z,6.57
2019-04-16T02:53:12.173Z,6.57
2019-04-16T02:54:12.177Z,6.57
2019-04-16T02:55:12.157Z,6.59
2019-04-16T02:56:17.568Z,6.52
2019-04-16T02:57:12.140Z,6.60
2019-04-16T02:58:12.139Z,6.60
2019-04-16T02:59:13.591Z,6.57
2019-04-16T03:00:12.125Z,6.62
2019-04-16T03:01:12.121Z,6.56
2019-04-16T03:02:12.108Z,6.56
2019-04-16T03:03:12.103Z,6.52
2019-04-16T03:04:12.098Z,6.57
2019-04-16T03:05:12.090Z,6.54
2019-04-16T03:06:12.084Z,6.62
2019-04-16T03:07:12.078Z,6.59
2019-04-16T03:08:12.144Z,6.49
2019-04-16T03:09:12.103Z,6.57
2019-04-16T03:10:13.799Z,6.57
2019-04-16T03:11:13.745Z,6.52
2019-04-16T03:12:12.095Z,6.48
2019-04-16T03:13:12.034Z,6.51
2019-04-16T03:14:12.034Z,6.46
2019-04-16T03:15:12.020Z,6.46
2019-04-16T03:16:12.018Z,6.39
2019-04-16T03:17:12.019Z,6.45
2019-04-16T03:18:15.039Z,6.41
2019-04-16T03:19:11.998Z,6.56
2019-04-16T03:20:12.069Z,6.46
2019-04-16T03:21:11.979Z,6.39
2019-04-16T03:22:11.981Z,6.41
2019-04-16T03:23:11.970Z,6.35
2019-04-16T03:24:11.966Z,6.31
2019-04-16T03:25:13.948Z,6.41
2019-04-16T03:26:16.383Z,6.44
2019-04-16T03:27:12.048Z,6.42
2019-04-16T03:28:11.933Z,6.46
2019-04-16T03:29:11.925Z,6.44
2019-04-16T03:30:11.926Z,6.36
2019-04-16T03:31:19.362Z,6.33
2019-04-16T03:32:14.179Z,6.38
2019-04-16T03:33:14.663Z,6.35
2019-04-16T03:34:11.900Z,6.20
2019-04-16T03:35:11.891Z,6.28
2019-04-16T03:36:11.878Z,6.22
2019-04-16T03:37:11.874Z,6.24
2019-04-16T03:38:11.868Z,6.19
2019-04-16T03:39:13.715Z,6.24
2019-04-16T03:40:17.737Z,6.22
2019-04-16T03:41:11.846Z,6.17
2019-04-16T03:42:11.989Z,6.17
2019-04-16T03:43:11.903Z,6.22
2019-04-16T03:44:11.992Z,6.17
2019-04-16T03:45:12.044Z,6.12
2019-04-16T03:46:13.015Z,6.22
2019-04-16T03:47:11.810Z,6.17
2019-04-16T03:48:11.805Z,6.09
2019-04-16T03:49:11.794Z,6.16
2019-04-16T03:50:11.782Z,6.17
2019-04-16T03:51:11.780Z,6.17
2019-04-16T03:52:11.778Z,6.14
2019-04-16T03:53:16.353Z,6.17
2019-04-16T03:54:11.770Z,6.11
2019-04-16T03:55:11.755Z,6.11
2019-04-16T03:56:11.746Z,6.05
2019-04-16T03:57:11.739Z,6.04
2019-04-16T03:58:11.733Z,6.14
2019-04-16T03:59:12.438Z,6.14
2019-04-16T04:00:12.904Z,6.04
2019-04-16T04:01:14.436Z,6.04
2019-04-16T04:02:11.703Z,5.93
2019-04-16T04:03:11.697Z,5.94
2019-04-16T04:04:11.690Z,6.01
2019-04-16T04:05:11.685Z,5.97
2019-04-16T04:06:11.674Z,5.89
2019-04-16T04:07:13.212Z,5.86
2019-04-16T04:08:16.087Z,5.79
2019-04-16T04:09:11.657Z,5.82
2019-04-16T04:10:11.646Z,5.94
2019-04-16T04:11:11.643Z,5.87
2019-04-16T04:12:13.008Z,5.87
2019-04-16T04:13:14.626Z,5.87
2019-04-16T04:14:11.619Z,5.86
2019-04-16T04:15:11.614Z,5.83
2019-04-16T04:16:11.605Z,5.87
2019-04-16T04:17:11.597Z,5.82
2019-04-16T04:18:12.788Z,5.90
2019-04-16T04:19:15.152Z,5.76
2019-04-16T04:20:11.577Z,5.93
2019-04-16T04:21:11.568Z,5.86
2019-04-16T04:22:11.559Z,5.80
2019-04-16T04:23:11.562Z,5.80
2019-04-16T04:24:11.551Z,5.76
2019-04-16T04:25:11.547Z,5.82
2019-04-16T04:26:11.546Z,5.72
2019-04-16T04:27:14.774Z,5.73
2019-04-16T04:28:11.519Z,5.71
2019-04-16T04:29:11.653Z,5.68
2019-04-16T04:30:11.507Z,5.68
2019-04-16T04:31:11.504Z,5.65
2019-04-16T04:32:11.494Z,5.68
2019-04-16T04:33:11.489Z,5.64
2019-04-16T04:34:15.384Z,5.68
2019-04-16T04:35:11.472Z,5.66
2019-04-16T04:36:11.469Z,5.68
2019-04-16T04:37:11.454Z,5.61
2019-04-16T04:38:11.535Z,5.54
2019-04-16T04:39:14.962Z,5.62
2019-04-16T04:40:12.770Z,5.57
2019-04-16T04:41:11.434Z,5.57
2019-04-16T04:42:11.424Z,5.64
2019-04-16T04:43:11.428Z,5.51
2019-04-16T04:44:11.406Z,5.56
2019-04-16T04:45:11.405Z,5.46
2019-04-16T04:46:14.793Z,5.51
2019-04-16T04:47:11.391Z,5.47
2019-04-16T04:48:12.129Z,5.51
2019-04-16T04:49:11.371Z,5.48
2019-04-16T04:50:11.363Z,5.46
2019-04-16T04:51:11.360Z,5.44
2019-04-16T04:52:14.639Z,5.51
2019-04-16T04:53:11.349Z,5.54
2019-04-16T04:54:11.351Z,5.47
2019-04-16T04:55:11.469Z,5.39
2019-04-16T04:56:11.324Z,5.43
2019-04-16T04:57:11.316Z,5.36
2019-04-16T04:58:11.407Z,5.43
2019-04-16T04:59:11.302Z,5.44
2019-04-16T05:00:11.295Z,5.38
2019-04-16T05:01:13.587Z,5.35
2019-04-16T05:02:14.540Z,5.39
2019-04-16T05:03:12.409Z,5.38
2019-04-16T05:04:11.269Z,5.44
2019-04-16T05:05:11.258Z,5.50
2019-04-16T05:06:11.253Z,5.36
2019-04-16T05:07:11.244Z,5.43
2019-04-16T05:08:11.291Z,5.43
2019-04-16T05:09:11.236Z,5.47
2019-04-16T05:10:11.223Z,5.41
2019-04-16T05:11:12.524Z,5.50
2019-04-16T05:12:11.331Z,5.46
2019-04-16T05:13:11.273Z,5.46
2019-04-16T05:14:11.195Z,5.48
2019-04-16T05:15:11.223Z,5.51
2019-04-16T05:16:11.464Z,5.53
2019-04-16T05:17:11.177Z,5.53
2019-04-16T05:18:11.172Z,5.66
2019-04-16T05:19:14.033Z,5.69
2019-04-16T05:20:14.835Z,5.65
2019-04-16T05:21:11.151Z,5.80
2019-04-16T05:22:11.148Z,5.79
2019-04-16T05:23:11.138Z,5.84
2019-04-16T05:24:11.173Z,5.84
2019-04-16T05:25:11.125Z,5.87
2019-04-16T05:26:11.111Z,5.99
2019-04-16T05:27:11.112Z,5.97
2019-04-16T05:28:12.056Z,5.94
2019-04-16T05:29:16.125Z,6.08
2019-04-16T05:30:11.091Z,6.07
2019-04-16T05:31:11.085Z,6.09
2019-04-16T05:32:11.314Z,6.11
2019-04-16T05:33:11.071Z,6.20
2019-04-16T05:34:11.063Z,6.24
2019-04-16T05:35:11.255Z,6.36
2019-04-16T05:36:14.172Z,6.38
2019-04-16T05:37:11.043Z,6.45
2019-04-16T05:38:11.041Z,6.33
2019-04-16T05:39:11.028Z,6.51
2019-04-16T05:40:11.022Z,6.48
2019-04-16T05:41:13.657Z,6.56
2019-04-16T05:42:11.207Z,6.56
2019-04-16T05:43:11.000Z,6.57
2019-04-16T05:44:11.014Z,6.62
2019-04-16T05:45:11.431Z,6.72
2019-04-16T05:46:11.497Z,6.64
2019-04-16T05:47:11.144Z,6.69
2019-04-16T05:48:11.349Z,6.74
2019-04-16T05:49:10.963Z,6.74
2019-04-16T05:50:10.958Z,6.85
2019-04-16T05:51:10.949Z,6.85
2019-04-16T05:52:10.938Z,6.82
2019-04-16T05:53:13.163Z,6.92
2019-04-16T05:54:12.177Z,7.06
2019-04-16T05:55:16.885Z,7.00
2019-04-16T05:56:10.914Z,6.99
2019-04-16T05:57:10.907Z,7.13
2019-04-16T05:58:10.906Z,7.18
2019-04-16T05:59:10.895Z,7.25
2019-04-16T06:00:10.894Z,7.28
2019-04-16T06:01:13.695Z,7.24
2019-04-16T06:02:10.881Z,7.36
2019-04-16T06:03:10.872Z,7.42
2019-04-16T06:04:10.871Z,7.42
2019-04-16T06:05:10.858Z,7.45
2019-04-16T06:06:10.851Z,7.58
2019-04-16T06:07:10.849Z,7.57
2019-04-16T06:08:10.850Z,7.75
2019-04-16T06:09:12.166Z,7.67
2019-04-16T06:10:17.083Z,7.80
2019-04-16T06:11:10.827Z,7.87
2019-04-16T06:12:10.821Z,7.93
2019-04-16T06:13:12.606Z,7.97
2019-04-16T06:14:16.970Z,8.05
2019-04-16T06:15:10.796Z,7.98
2019-04-16T06:16:10.789Z,8.12
2019-04-16T06:17:10.786Z,8.13
2019-04-16T06:18:10.786Z,8.28
2019-04-16T06:19:11.468Z,8.28
2019-04-16T06:20:10.770Z,8.37
2019-04-16T06:21:10.768Z,8.37
2019-04-16T06:22:10.755Z,8.45
2019-04-16T06:23:10.750Z,8.52
2019-04-16T06:24:10.750Z,8.58
2019-04-16T06:25:11.088Z,8.53
2019-04-16T06:26:14.762Z,8.70
2019-04-16T06:27:10.729Z,8.66
2019-04-16T06:28:10.722Z,8.69
2019-04-16T06:29:10.717Z,8.82
2019-04-16T06:30:10.716Z,8.87
2019-04-16T06:31:10.710Z,8.94
2019-04-16T06:32:11.899Z,8.97
2019-04-16T06:33:10.700Z,9.06
2019-04-16T06:34:10.687Z,9.08
2019-04-16T06:35:10.689Z,9.11
2019-04-16T06:36:10.682Z,9.26
2019-04-16T06:37:10.673Z,9.29
2019-04-16T06:38:10.672Z,9.31
2019-04-16T06:39:10.660Z,9.40
2019-04-16T06:40:10.651Z,9.40
2019-04-16T06:41:10.653Z,9.51
2019-04-16T06:42:10.643Z,9.51
2019-04-16T06:43:10.642Z,9.61
2019-04-16T06:44:10.641Z,9.72
2019-04-16T06:45:10.629Z,9.64
2019-04-16T06:46:10.623Z,9.68
2019-04-16T06:47:11.772Z,9.73
2019-04-16T06:48:13.223Z,9.89
2019-04-16T06:49:10.607Z,9.83
2019-04-16T06:50:10.609Z,9.84
2019-04-16T06:51:12.428Z,9.98
2019-04-16T06:52:16.030Z,9.99
2019-04-16T06:53:10.588Z,10.04
2019-04-16T06:54:11.246Z,10.19
2019-04-16T06:55:10.579Z,10.22
2019-04-16T06:56:10.574Z,10.33
2019-04-16T06:57:12.190Z,10.40
2019-04-16T06:58:12.485Z,10.41
2019-04-16T06:59:10.565Z,10.60
2019-04-16T07:00:10.557Z,10.46
2019-04-16T07:01:10.561Z,10.54
2019-04-16T07:02:11.222Z,10.57
2019-04-16T07:03:10.539Z,10.69
2019-04-16T07:04:10.534Z,10.74
2019-04-16T07:05:10.533Z,10.89
2019-04-16T07:06:10.530Z,10.84
2019-04-16T07:07:10.521Z,10.89
2019-04-16T07:08:10.517Z,10.93
2019-04-16T07:09:10.510Z,11.10
2019-04-16T07:10:10.508Z,11.14
2019-04-16T07:11:10.519Z,11.26
2019-04-16T07:12:10.498Z,11.33
2019-04-16T07:13:11.367Z,11.35
2019-04-16T07:14:11.580Z,11.40
2019-04-16T07:15:10.495Z,11.41
2019-04-16T07:16:10.481Z,11.55
2019-04-16T07:17:10.482Z,11.62
2019-04-16T07:18:10.499Z,11.70
2019-04-16T07:19:11.587Z,11.69
2019-04-16T07:20:13.377Z,11.70
2019-04-16T07:21:10.461Z,11.75
2019-04-16T07:22:10.455Z,11.84
2019-04-16T07:23:10.456Z,11.84
2019-04-16T07:24:10.457Z,11.88
2019-04-16T07:25:10.470Z,11.90
2019-04-16T07:26:13.534Z,12.03
2019-04-16T07:27:10.438Z,12.17
2019-04-16T07:28:10.435Z,12.22
2019-04-16T07:29:10.425Z,12.24
2019-04-16T07:30:10.427Z,12.24
2019-04-16T07:31:13.495Z,12.20
2019-04-16T07:32:10.430Z,12.21
2019-04-16T07:33:10.413Z,12.24
2019-04-16T07:34:10.409Z,12.25
2019-04-16T07:35:10.432Z,12.24
2019-04-16T07:36:10.403Z,12.46
2019-04-16T07:37:10.410Z,12.49
2019-04-16T07:38:11.631Z,12.60
2019-04-16T07:39:13.233Z,12.60
2019-04-16T07:40:10.666Z,12.72
2019-04-16T07:41:11.842Z,12.79
2019-04-16T07:42:14.053Z,12.76
2019-04-16T07:43:10.504Z,12.90
2019-04-16T07:44:11.251Z,13.01
2019-04-16T07:45:12.543Z,13.11
2019-04-16T07:46:10.364Z,13.27
2019-04-16T07:47:10.561Z,13.19
2019-04-16T07:48:10.352Z,13.35
2019-04-16T07:49:10.356Z,13.41
2019-04-16T07:50:10.352Z,13.41
2019-04-16T07:51:10.347Z,13.54
2019-04-16T07:52:12.277Z,13.42
2019-04-16T07:53:13.333Z,13.35
2019-04-16T07:54:10.332Z,13.49
2019-04-16T07:55:10.561Z,13.50
2019-04-16T07:56:10.326Z,13.50
2019-04-16T07:57:10.333Z,13.47
2019-04-16T07:58:10.325Z,13.57
2019-04-16T07:59:10.320Z,13.67
2019-04-16T08:00:10.314Z,13.74
2019-04-16T08:01:12.654Z,13.79
2019-04-16T08:02:10.312Z,13.87
2019-04-16T08:03:10.308Z,14.07
2019-04-16T08:04:10.304Z,14.11
2019-04-16T08:05:10.295Z,14.17
2019-04-16T08:06:10.704Z,14.10
2019-04-16T08:07:10.292Z,14.15
2019-04-16T08:08:10.345Z,14.22
2019-04-16T08:09:10.290Z,14.26
2019-04-16T08:10:10.290Z,14.33
2019-04-16T08:11:10.281Z,14.37
2019-04-16T08:12:22.288Z,14.41
2019-04-16T08:13:10.374Z,14.41
2019-04-16T08:14:10.451Z,14.48
2019-04-16T08:15:14.526Z,14.45
2019-04-16T08:16:10.280Z,14.60
2019-04-16T08:17:10.268Z,14.66
2019-04-16T08:18:10.269Z,14.69
2019-04-16T08:19:12.227Z,14.84
2019-04-16T08:20:10.607Z,14.88
2019-04-16T08:21:12.379Z,15.00
2019-04-16T08:22:15.579Z,14.94
2019-04-16T08:23:10.260Z,15.09
2019-04-16T08:24:10.252Z,15.14
2019-04-16T08:25:10.262Z,15.18
2019-04-16T08:26:13.308Z,14.97
2019-04-16T08:27:10.901Z,15.04
2019-04-16T08:28:10.267Z,15.14
2019-04-16T08:29:10.442Z,15.25
2019-04-16T08:30:10.251Z,15.33
2019-04-16T08:31:12.232Z,15.36
2019-04-16T08:32:12.824Z,15.47
2019-04-16T08:33:11.704Z,15.44
2019-04-16T08:34:10.247Z,15.52
2019-04-16T08:35:10.276Z,15.62
2019-04-16T08:36:10.268Z,15.77
2019-04-16T08:37:10.243Z,15.90
2019-04-16T08:38:10.243Z,15.84
2019-04-16T08:39:10.279Z,15.97
2019-04-16T08:40:12.449Z,16.10
2019-04-16T08:41:12.697Z,16.13
2019-04-16T08:42:10.241Z,16.15
2019-04-16T08:43:10.256Z,16.05
2019-04-16T08:44:10.754Z,16.33
2019-04-16T08:45:10.236Z,16.15
2019-04-16T08:46:11.516Z,16.04
2019-04-16T08:47:12.002Z,16.17
2019-04-16T08:48:10.324Z,16.26
2019-04-16T08:49:10.232Z,16.50
2019-04-16T08:50:12.183Z,16.56
2019-04-16T08:51:10.232Z,16.39
2019-04-16T08:52:11.023Z,16.50
2019-04-16T08:53:13.562Z,16.64
2019-04-16T08:54:10.286Z,16.79
2019-04-16T08:55:10.231Z,16.87
2019-04-16T08:56:10.226Z,16.96
2019-04-16T08:57:10.492Z,16.97
2019-04-16T08:58:12.451Z,17.11
2019-04-16T08:59:11.298Z,17.19
2019-04-16T09:00:14.399Z,17.19
2019-04-16T09:01:10.221Z,17.27
2019-04-16T09:02:10.213Z,17.33
2019-04-16T09:03:10.217Z,17.23
2019-04-16T09:04:10.222Z,17.36
2019-04-16T09:05:11.728Z,17.38
2019-04-16T09:06:13.184Z,17.36
2019-04-16T09:07:13.018Z,17.46
2019-04-16T09:08:13.028Z,17.48
2019-04-16T09:09:13.482Z,17.49
2019-04-16T09:10:18.864Z,17.63
2019-04-16T09:11:22.315Z,17.70
2019-04-16T09:12:10.266Z,17.68
2019-04-16T09:13:10.202Z,17.65
2019-04-16T09:14:10.212Z,17.82
2019-04-16T09:15:10.205Z,17.87
2019-04-16T09:16:10.925Z,17.89
2019-04-16T09:17:10.459Z,17.98
2019-04-16T09:18:10.201Z,18.05
2019-04-16T09:19:10.197Z,18.22
2019-04-16T09:20:10.199Z,18.26
2019-04-16T09:21:11.595Z,18.25
2019-04-16T09:22:15.761Z,18.34
2019-04-16T09:23:10.199Z,18.35
2019-04-16T09:24:10.202Z,18.37
2019-04-16T09:25:13.832Z,18.20
2019-04-16T09:26:14.015Z,18.37
2019-04-16T09:27:12.590Z,18.44
2019-04-16T09:28:24.566Z,18.43
2019-04-16T09:29:10.482Z,18.50
2019-04-16T09:30:16.328Z,18.43
2019-04-16T09:31:10.381Z,18.49
2019-04-16T09:32:10.195Z,18.70
2019-04-16T09:33:10.483Z,18.77
2019-04-16T09:34:10.193Z,18.59
2019-04-16T09:35:14.231Z,18.70
2019-04-16T09:36:10.191Z,18.62
2019-04-16T09:37:10.196Z,18.66
2019-04-16T09:38:13.038Z,18.70
2019-04-16T09:39:10.194Z,18.80
2019-04-16T09:40:17.623Z,18.93
2019-04-16T09:41:10.185Z,19.12
2019-04-16T09:42:10.186Z,19.29
2019-04-16T09:43:16.754Z,19.27
2019-04-16T09:44:10.192Z,19.16
2019-04-16T09:45:10.203Z,19.14
2019-04-16T09:46:17.560Z,19.15
2019-04-16T09:47:10.185Z,19.24
2019-04-16T09:48:10.189Z,19.27
2019-04-16T09:49:10.183Z,19.14
2019-04-16T09:50:11.532Z,19.29
2019-04-16T09:51:10.183Z,19.26
2019-04-16T09:52:10.186Z,19.24
2019-04-16T09:53:10.183Z,19.48
2019-04-16T09:54:13.569Z,19.69
2019-04-16T09:55:10.179Z,19.92
2019-04-16T09:56:10.181Z,19.91
2019-04-16T09:57:10.178Z,19.95
2019-04-16T09:58:10.182Z,20.13
2019-04-16T09:59:10.983Z,20.22
2019-04-16T10:00:10.221Z,20.19
2019-04-16T10:01:10.183Z,20.32
2019-04-16T10:02:10.184Z,20.34
2019-04-16T10:03:10.179Z,20.22
2019-04-16T10:04:10.183Z,20.39
2019-04-16T10:05:10.185Z,20.41
2019-04-16T10:06:10.181Z,20.62
2019-04-16T10:07:10.220Z,20.62
2019-04-16T10:08:12.767Z,20.81
2019-04-16T10:09:10.204Z,20.74
2019-04-16T10:10:10.201Z,20.85
2019-04-16T10:11:10.186Z,20.90
2019-04-16T10:12:10.210Z,21.12
2019-04-16T10:13:10.213Z,21.27
2019-04-16T10:14:10.185Z,21.43
2019-04-16T10:15:10.228Z,21.55
2019-04-16T10:16:13.381Z,21.62
2019-04-16T10:17:10.199Z,21.89
2019-04-16T10:18:10.219Z,21.92
2019-04-16T10:19:10.199Z,21.98
2019-04-16T10:20:10.228Z,21.77
2019-04-16T10:21:10.198Z,21.98
2019-04-16T10:22:10.197Z,22.13
2019-04-16T10:23:10.196Z,22.10
2019-04-16T10:24:13.061Z,22.29
2019-04-16T10:25:10.237Z,22.44
2019-04-16T10:26:10.206Z,22.65
2019-04-16T10:27:10.226Z,22.76
2019-04-16T10:28:10.220Z,22.68
2019-04-16T10:29:10.221Z,22.81
2019-04-16T10:30:10.226Z,23.10
2019-04-16T10:31:10.250Z,23.08
2019-04-16T10:32:10.265Z,23.09
2019-04-16T10:33:10.244Z,23.21
2019-04-16T10:34:10.247Z,23.24
2019-04-16T10:35:10.257Z,23.40
2019-04-16T10:36:10.258Z,23.65
2019-04-16T10:37:10.263Z,23.55
2019-04-16T10:38:13.382Z,23.68
2019-04-16T10:39:10.282Z,24.01
2019-04-16T10:40:10.304Z,23.77
2019-04-16T10:41:10.300Z,23.69
2019-04-16T10:42:10.301Z,23.73
2019-04-16T10:43:10.312Z,23.95
2019-04-16T10:44:10.342Z,23.71
2019-04-16T10:45:10.318Z,23.98
2019-04-16T10:46:10.332Z,24.16
2019-04-16T10:47:12.424Z,24.45
2019-04-16T10:48:10.338Z,24.48
2019-04-16T10:49:10.369Z,24.10
2019-04-16T10:50:10.385Z,23.95
2019-04-16T10:51:15.182Z,24.28
2019-04-16T10:52:10.398Z,24.28
2019-04-16T10:53:10.458Z,24.60
2019-04-16T10:54:10.391Z,24.43
2019-04-16T10:55:12.156Z,24.43
2019-04-16T10:56:10.410Z,24.58
2019-04-16T10:57:10.553Z,24.65
2019-04-16T10:58:10.431Z,24.60
2019-04-16T10:59:10.435Z,24.10
2019-04-16T11:00:10.455Z,24.35
2019-04-16T11:01:10.575Z,24.51
2019-04-16T11:02:10.877Z,24.05
2019-04-16T11:03:10.498Z,24.39
2019-04-16T11:04:10.491Z,24.61
2019-04-16T11:05:10.511Z,24.58
2019-04-16T11:06:10.504Z,24.43
2019-04-16T11:07:10.516Z,24.61
2019-04-16T11:08:10.540Z,24.76
2019-04-16T11:09:10.559Z,24.93
2019-04-16T11:10:11.908Z,24.93
2019-04-16T11:11:10.546Z,24.98
2019-04-16T11:12:10.555Z,25.06
2019-04-16T11:13:10.599Z,25.23
2019-04-16T11:14:10.590Z,25.08
2019-04-16T11:15:10.591Z,24.80
2019-04-16T11:16:10.625Z,24.86
2019-04-16T11:17:10.629Z,24.92
2019-04-16T11:18:10.626Z,25.17
2019-04-16T11:19:10.627Z,25.40
2019-04-16T11:20:10.638Z,25.53
2019-04-16T11:21:10.674Z,25.68
2019-04-16T11:22:10.758Z,25.80
2019-04-16T11:23:10.679Z,25.69
2019-04-16T11:24:10.705Z,25.70
2019-04-16T11:25:10.714Z,25.65
2019-04-16T11:26:10.704Z,25.11
2019-04-16T11:27:10.715Z,25.35
2019-04-16T11:28:13.768Z,25.60
2019-04-16T11:29:10.758Z,25.81
2019-04-16T11:30:10.776Z,25.87
2019-04-16T11:31:10.798Z,26.07
2019-04-16T11:32:10.777Z,26.06
2019-04-16T11:33:10.808Z,26.28
2019-04-16T11:34:10.789Z,26.44
2019-04-16T11:35:13.044Z,26.40
2019-04-16T11:36:20.005Z,26.28
2019-04-16T11:37:10.832Z,26.38
2019-04-16T11:38:11.134Z,26.31
2019-04-16T11:39:10.857Z,26.56
2019-04-16T11:40:10.864Z,26.60
2019-04-16T11:41:10.907Z,26.65
2019-04-16T11:42:10.909Z,26.83
2019-04-16T11:43:10.925Z,26.75
2019-04-16T11:44:15.680Z,26.90
2019-04-16T11:45:10.934Z,26.97
2019-04-16T11:46:10.972Z,26.96
2019-04-16T11:47:10.946Z,27.03
2019-04-16T11:48:11.227Z,26.66
2019-04-16T11:49:10.992Z,26.66
2019-04-16T11:50:10.999Z,26.53
2019-04-16T11:51:11.008Z,26.58
2019-04-16T11:52:11.125Z,26.73
2019-04-16T11:53:11.018Z,27.11
2019-04-16T11:54:11.902Z,26.78
2019-04-16T11:55:11.061Z,26.43
2019-04-16T11:56:11.218Z,26.47
2019-04-16T11:57:13.121Z,26.41
2019-04-16T11:58:11.075Z,26.80
2019-04-16T11:59:11.089Z,26.74
2019-04-16T12:00:11.153Z,26.13
2019-04-16T12:01:11.115Z,26.37
2019-04-16T12:02:11.135Z,26.60
2019-04-16T12:03:11.149Z,26.78
2019-04-16T12:04:15.318Z,27.05
2019-04-16T12:05:11.194Z,27.17
2019-04-16T12:06:26.722Z,27.12
2019-04-16T12:07:11.197Z,27.30
2019-04-16T12:08:11.241Z,27.33
2019-04-16T12:09:11.245Z,27.32
2019-04-16T12:10:11.246Z,27.30
2019-04-16T12:11:11.255Z,27.63
2019-04-16T12:12:11.271Z,27.89
2019-04-16T12:13:11.308Z,28.05
2019-04-16T12:14:11.320Z,27.93
2019-04-16T12:15:11.316Z,27.74
2019-04-16T12:16:11.352Z,27.70
2019-04-16T12:17:11.369Z,27.98
2019-04-16T12:18:11.364Z,27.74
2019-04-16T12:19:11.364Z,27.92
2019-04-16T12:20:11.463Z,27.78
2019-04-16T12:21:11.510Z,27.98
2019-04-16T12:22:11.404Z,28.04
2019-04-16T12:23:11.424Z,28.32
2019-04-16T12:24:11.438Z,28.12
2019-04-16T12:25:11.515Z,28.38
2019-04-16T12:26:11.483Z,28.45
2019-04-16T12:27:11.539Z,28.64
2019-04-16T12:28:12.647Z,28.66
2019-04-16T12:29:11.547Z,28.93
2019-04-16T12:30:11.530Z,29.08
2019-04-16T12:31:11.549Z,29.04
2019-04-16T12:32:11.549Z,29.23
2019-04-16T12:33:13.962Z,29.53
2019-04-16T12:34:11.574Z,29.20
2019-04-16T12:35:11.604Z,29.31
2019-04-16T12:36:14.101Z,29.16
2019-04-16T12:37:11.664Z,29.19
2019-04-16T12:38:14.721Z,29.44
2019-04-16T12:39:11.669Z,29.42
2019-04-16T12:40:11.670Z,29.59
2019-04-16T12:41:11.689Z,29.56
2019-04-16T12:42:11.711Z,29.32
2019-04-16T12:43:14.756Z,29.36
2019-04-16T12:44:11.805Z,29.35
2019-04-16T12:45:11.774Z,29.54
2019-04-16T12:46:11.767Z,29.31
2019-04-16T12:47:11.759Z,29.12
2019-04-16T12:48:11.773Z,29.45
2019-04-16T12:49:11.978Z,29.39
2019-04-16T12:50:12.064Z,29.69
2019-04-16T12:51:11.815Z,29.75
2019-04-16T12:52:16.125Z,29.59
2019-04-16T12:53:11.871Z,29.57
2019-04-16T12:54:11.977Z,29.72
2019-04-16T12:55:11.891Z,30.15
2019-04-16T12:56:11.942Z,30.23
2019-04-16T12:57:15.007Z,29.94
2019-04-16T12:58:11.929Z,30.35
2019-04-16T12:59:11.934Z,30.63
2019-04-16T13:00:11.948Z,30.73
2019-04-16T13:01:11.961Z,30.70
2019-04-16T13:02:13.330Z,30.65
2019-04-16T13:03:16.442Z,30.53
2019-04-16T13:04:12.015Z,30.51
2019-04-16T13:05:12.020Z,30.61
2019-04-16T13:06:12.033Z,30.66